Time;durP1;ratioP1;P1;durP2;ratioP2;P2;SDS_P1;SDS_P2;PMS_P1;PMS_P2;Temp;Humidity;BMP_temperature;BMP_pressure;BME280_temperature;BME280_humidity;BME280_pressure;Samples;Min_cycle;Max_cycle;Signal;HPM_P1;HPM_P2
2022/04/02 00:01:49;;;;;;;2.00;0.90;;;22.90;96.80;;;;;;4162789;28;20046;-65
2022/04/02 00:03:56;;;;;;;1.95;0.80;;;22.60;97.40;;;;;;4181154;28;20037;-65
2022/04/02 00:06:02;;;;;;;2.15;0.75;;;22.60;97.40;;;;;;4179835;28;20052;-65
2022/04/02 00:08:07;;;;;;;1.38;0.50;;;22.50;97.40;;;;;;4180054;28;20044;-65
2022/04/02 00:10:14;;;;;;;1.55;0.90;;;22.00;97.60;;;;;;4178681;28;20037;-65
2022/04/02 00:12:19;;;;;;;2.08;0.75;;;22.00;98.00;;;;;;4178930;28;20133;-65
2022/04/02 00:14:29;;;;;;;1.17;0.73;;;21.90;98.00;;;;;;4179232;28;20519;-65
2022/04/02 00:16:36;;;;;;;1.23;0.70;;;21.60;98.70;;;;;;4159388;28;20257;-64
2022/04/02 00:18:42;;;;;;;3.17;0.68;;;21.60;98.40;;;;;;4179502;28;20128;-66
2022/04/02 00:20:48;;;;;;;1.27;0.80;;;21.60;98.60;;;;;;4179219;28;20053;-65
2022/04/02 00:25:11;;;;;;;3.45;0.90;;;21.70;98.30;;;;;;4179002;28;20191;-65
2022/04/02 00:27:20;;;;;;;2.28;0.57;;;21.80;98.10;;;;;;4177467;28;20052;-65
2022/04/02 00:29:25;;;;;;;2.40;0.70;;;21.80;98.00;;;;;;4178657;28;20065;-65
2022/04/02 00:31:31;;;;;;;0.68;0.68;;;21.40;98.60;;;;;;4160468;28;20132;-65
2022/04/02 00:33:45;;;;;;;1.35;0.70;;;21.60;98.70;;;;;;4160532;28;20160;-66
2022/04/02 00:36:00;;;;;;;9.25;1.42;;;21.70;98.90;;;;;;4152693;28;20041;-67
2022/04/02 00:38:04;;;;;;;10.85;1.70;;;21.70;98.70;;;;;;4184152;28;20111;-66
2022/04/02 00:40:09;;;;;;;5.93;1.13;;;21.70;98.70;;;;;;4174504;28;20049;-65
2022/04/02 00:42:16;;;;;;;1.55;0.90;;;21.50;99.20;;;;;;4173528;28;20048;-65
2022/04/02 00:44:21;;;;;;;1.05;0.52;;;21.60;99.20;;;;;;4173065;28;20475;-62
2022/04/02 00:46:28;;;;;;;2.45;1.30;;;21.30;99.60;;;;;;4154490;28;20120;-62
2022/04/02 00:48:34;;;;;;;1.73;1.00;;;21.40;99.90;;;;;;4172361;28;20132;-62
2022/04/02 00:50:39;;;;;;;0.70;0.50;;;21.80;99.50;;;;;;4171620;28;20874;-60
2022/04/02 00:52:44;;;;;;;3.55;0.77;;;21.20;99.30;;;;;;4173686;28;20111;-59
2022/04/02 00:54:52;;;;;;;2.00;0.55;;;21.10;99.90;;;;;;4176209;28;20167;-62
2022/04/02 00:56:57;;;;;;;1.60;0.40;;;21.10;99.90;;;;;;4172854;28;20663;-62
2022/04/02 00:59:01;;;;;;;0.68;0.35;;;21.20;99.90;;;;;;4148727;28;20050;-61
2022/04/02 01:01:09;;;;;;;1.27;0.30;;;21.50;99.80;;;;;;4169188;28;20140;-62
2022/04/02 01:03:16;;;;;;;1.27;0.52;;;21.40;99.60;;;;;;4172339;28;20037;-62
2022/04/02 01:05:24;;;;;;;0.70;0.30;;;21.40;99.80;;;;;;4153836;28;20049;-62
2022/04/02 01:07:30;;;;;;;0.98;0.38;;;21.00;99.90;;;;;;4144710;28;20057;-62
2022/04/02 01:09:37;;;;;;;2.58;0.98;;;21.20;99.90;;;;;;4105570;28;20066;-62
2022/04/02 01:11:45;;;;;;;0.80;0.40;;;21.40;99.70;;;;;;4105984;28;20505;-61
2022/04/02 01:13:51;;;;;;;1.75;0.30;;;21.20;99.90;;;;;;4058078;29;20098;-62
2022/04/02 01:15:57;;;;;;;3.78;0.40;;;20.80;99.90;;;;;;4119862;28;20062;-62
2022/04/02 01:18:02;;;;;;;0.43;0.30;;;20.60;99.90;;;;;;4136088;28;20046;-62
2022/04/02 01:20:13;;;;;;;0.20;0.20;;;20.60;99.90;;;;;;4106765;28;20101;-62
2022/04/02 01:22:18;;;;;;;1.30;0.38;;;20.80;99.90;;;;;;4105740;28;20549;-62
2022/04/02 01:24:33;;;;;;;2.95;0.50;;;21.00;99.90;;;;;;4102419;28;20191;-62
2022/04/02 01:26:42;;;;;;;0.95;0.40;;;21.00;99.90;;;;;;4119266;28;20085;-62
2022/04/02 01:28:57;;;;;;;1.15;0.25;;;20.90;99.90;;;;;;4121511;28;20054;-62
2022/04/02 01:31:16;;;;;;;1.35;0.40;;;21.00;99.90;;;;;;4104521;28;20191;-63
2022/04/02 01:33:29;;;;;;;1.60;0.37;;;21.20;99.90;;;;;;4107088;28;20054;-62
2022/04/02 01:35:35;;;;;;;1.88;0.60;;;21.30;99.90;;;;;;4105988;28;20373;-62
2022/04/02 01:37:52;;;;;;;0.90;0.47;;;20.70;99.90;;;;;;4106332;28;20393;-61
2022/04/02 01:40:02;;;;;;;1.23;0.40;;;20.90;99.90;;;;;;4123466;28;20050;-62
2022/04/02 01:42:17;;;;;;;3.42;0.60;;;21.20;99.90;;;;;;4122483;28;20182;-62
2022/04/02 01:44:31;;;;;;;1.35;0.60;;;21.10;99.90;;;;;;4139013;28;20045;-62
2022/04/02 01:46:39;;;;;;;1.35;0.30;;;21.10;99.90;;;;;;4143945;28;20065;-62
2022/04/02 01:48:45;;;;;;;1.05;0.40;;;21.00;99.90;;;;;;4155016;28;20057;-62
2022/04/02 01:50:50;;;;;;;0.57;0.40;;;21.00;99.90;;;;;;4156989;28;20128;-62
2022/04/02 01:52:57;;;;;;;0.68;0.30;;;21.00;99.90;;;;;;4155524;28;20496;-62
2022/04/02 01:55:02;;;;;;;1.38;0.40;;;20.90;99.90;;;;;;4173686;28;20037;-62
2022/04/02 01:57:10;;;;;;;0.95;0.35;;;21.00;99.90;;;;;;4187481;28;20356;-61
2022/04/02 01:59:17;;;;;;;1.02;0.40;;;21.20;99.90;;;;;;4184484;28;20584;-62
2022/04/02 02:01:24;;;;;;;1.67;0.90;;;21.00;99.70;;;;;;4155166;28;20053;-61
2022/04/02 02:03:30;;;;;;;0.80;0.50;;;21.30;99.90;;;;;;4155555;28;20049;-61
2022/04/02 02:05:36;;;;;;;4.47;0.50;;;21.20;99.90;;;;;;4173078;28;20049;-61
2022/04/02 02:07:48;;;;;;;2.15;0.60;;;21.20;99.90;;;;;;4180320;28;20167;-62
2022/04/02 02:09:58;;;;;;;0.68;0.38;;;21.10;99.90;;;;;;4118461;28;20054;-62
2022/04/02 02:12:16;;;;;;;1.15;0.60;;;21.10;99.90;;;;;;4121916;28;20047;-62
2022/04/02 02:14:38;;;;;;;2.50;0.40;;;20.70;99.90;;;;;;4129720;28;20050;-62
2022/04/02 02:16:54;;;;;;;0.50;0.38;;;20.90;99.90;;;;;;4137947;28;20058;-61
2022/04/02 02:19:00;;;;;;;0.85;0.50;;;21.10;99.90;;;;;;4119567;28;20077;-62
2022/04/02 02:21:05;;;;;;;1.33;0.50;;;21.00;99.90;;;;;;4121679;28;20074;-62
2022/04/02 02:23:12;;;;;;;1.33;0.70;;;21.00;99.90;;;;;;4122122;28;20623;-61
2022/04/02 02:25:18;;;;;;;2.13;0.75;;;20.90;99.90;;;;;;4133518;28;20216;-62
2022/04/02 02:27:27;;;;;;;2.13;0.40;;;20.90;99.90;;;;;;4102301;28;20047;-63
2022/04/02 02:29:35;;;;;;;1.50;0.60;;;20.80;99.90;;;;;;4120648;28;20057;-64
2022/04/02 02:31:52;;;;;;;0.40;0.25;;;20.90;99.90;;;;;;4119197;28;20054;-63
2022/04/02 02:36:21;;;;;;;0.65;0.20;;;21.00;99.90;;;;;;4105635;28;20134;-61
2022/04/02 02:38:34;;;;;;;2.90;0.30;;;21.10;99.90;;;;;;4137162;28;20404;-64
2022/04/02 02:40:58;;;;;;;0.80;0.30;;;21.10;99.90;;;;;;4144874;28;21360;-64
2022/04/02 02:43:11;;;;;;;0.98;0.40;;;21.10;99.90;;;;;;4187723;28;20032;-64
2022/04/02 02:45:20;;;;;;;1.60;0.40;;;20.60;99.90;;;;;;4117222;28;20907;-64
2022/04/02 02:47:27;;;;;;;1.92;0.40;;;20.70;99.90;;;;;;4154338;28;20049;-63
2022/04/02 02:49:34;;;;;;;3.67;0.40;;;20.90;99.90;;;;;;4159770;28;20107;-64
2022/04/02 02:51:44;;;;;;;0.22;0.20;;;21.10;99.90;;;;;;4154774;28;20084;-64
2022/04/02 02:53:53;;;;;;;0.95;0.30;;;21.10;99.90;;;;;;4179590;28;20095;-63
2022/04/02 02:56:00;;;;;;;2.25;0.30;;;21.00;99.90;;;;;;4139182;28;20057;-64
2022/04/02 02:58:08;;;;;;;1.48;0.50;;;20.90;99.90;;;;;;4174051;28;20091;-64
2022/04/02 03:00:15;;;;;;;1.55;0.50;;;20.90;99.90;;;;;;4177835;28;20095;-64
2022/04/02 03:02:27;;;;;;;0.30;0.30;;;21.10;99.90;;;;;;4163330;28;20400;-63
2022/04/02 03:04:33;;;;;;;1.00;0.40;;;21.10;99.90;;;;;;4163985;28;20049;-63
2022/04/02 03:06:45;;;;;;;0.57;0.40;;;21.10;99.90;;;;;;4163188;28;20540;-64
2022/04/02 03:08:54;;;;;;;1.80;0.40;;;21.10;99.90;;;;;;4163379;28;20053;-63
2022/04/02 03:10:59;;;;;;;1.08;0.50;;;21.10;99.90;;;;;;4181423;28;20065;-64
2022/04/02 03:13:08;;;;;;;0.45;0.20;;;20.70;99.90;;;;;;4147115;28;20120;-63
2022/04/02 03:15:21;;;;;;;0.73;0.32;;;20.90;99.90;;;;;;4163828;28;20045;-63
2022/04/02 03:17:28;;;;;;;0.50;0.22;;;21.20;99.90;;;;;;4165112;28;20112;-63
2022/04/02 03:19:34;;;;;;;1.05;0.40;;;21.30;99.90;;;;;;4146061;28;20112;-63
2022/04/02 03:21:42;;;;;;;0.77;0.30;;;21.50;99.60;;;;;;4129710;28;20051;-63
2022/04/02 03:23:48;;;;;;;0.60;0.32;;;21.50;99.30;;;;;;4146073;28;20488;-63
2022/04/02 03:25:55;;;;;;;0.80;0.40;;;21.40;99.00;;;;;;4130519;28;20081;-63
2022/04/02 03:28:04;;;;;;;0.20;0.20;;;21.10;98.80;;;;;;4146585;28;20496;-64
2022/04/02 03:30:14;;;;;;;0.85;0.30;;;21.30;98.90;;;;;;4146368;28;20556;-63
2022/04/02 03:32:20;;;;;;;0.45;0.30;;;21.40;98.70;;;;;;4130241;28;20042;-63
2022/04/02 03:34:26;;;;;;;1.10;0.28;;;21.60;98.40;;;;;;4134089;28;20714;-63
2022/04/02 03:36:34;;;;;;;1.20;0.28;;;21.40;98.50;;;;;;4142830;28;20084;-64
2022/04/02 03:38:41;;;;;;;0.40;0.30;;;21.40;98.60;;;;;;4130335;28;20094;-63
2022/04/02 03:40:51;;;;;;;0.85;0.35;;;21.40;98.50;;;;;;4126321;28;20050;-63
2022/04/02 03:42:58;;;;;;;1.35;0.40;;;21.50;98.80;;;;;;4118887;28;20046;-63
2022/04/02 03:45:09;;;;;;;1.95;0.40;;;21.40;98.30;;;;;;4120459;28;20056;-63
2022/04/02 03:47:22;;;;;;;1.10;0.30;;;21.40;98.60;;;;;;4128540;28;20050;-63
2022/04/02 03:49:30;;;;;;;0.60;0.30;;;21.30;98.70;;;;;;4146142;28;20085;-63
2022/04/02 03:51:34;;;;;;;0.35;0.30;;;21.40;98.50;;;;;;4177544;28;20153;-63
2022/04/02 03:53:46;;;;;;;1.05;0.50;;;21.30;98.50;;;;;;4196132;28;20627;-63
2022/04/02 03:55:55;;;;;;;1.52;0.30;;;21.30;98.50;;;;;;4162178;28;20072;-63
2022/04/02 03:58:09;;;;;;;2.92;0.25;;;21.20;98.30;;;;;;4163120;28;20049;-62
2022/04/02 04:00:19;;;;;;;2.03;0.30;;;20.90;99.20;;;;;;4164473;28;20046;-63
2022/04/02 04:02:34;;;;;;;0.95;0.35;;;21.20;98.70;;;;;;4167478;28;20407;-63
2022/04/02 04:04:39;;;;;;;1.55;0.38;;;21.10;98.70;;;;;;4163565;28;20144;-63
2022/04/02 04:06:47;;;;;;;2.35;0.55;;;21.10;98.90;;;;;;4163092;28;20096;-63
2022/04/02 04:08:52;;;;;;;1.98;0.30;;;21.40;98.70;;;;;;4163030;28;20129;-63
2022/04/02 04:10:57;;;;;;;1.77;0.43;;;21.30;98.20;;;;;;4146975;28;20505;-63
2022/04/02 04:13:05;;;;;;;2.70;0.40;;;21.50;97.70;;;;;;4163652;28;20041;-63
2022/04/02 04:15:14;;;;;;;1.00;0.40;;;21.60;97.90;;;;;;4164584;28;20041;-64
2022/04/02 04:17:23;;;;;;;1.63;0.40;;;21.70;97.60;;;;;;4162891;28;20049;-63
2022/04/02 04:19:31;;;;;;;2.72;0.90;;;21.50;97.70;;;;;;4163800;28;20037;-63
2022/04/02 04:21:39;;;;;;;1.23;0.55;;;21.50;97.60;;;;;;4195394;28;20079;-62
2022/04/02 04:23:45;;;;;;;0.55;0.40;;;21.40;98.20;;;;;;4162687;28;20050;-63
2022/04/02 04:25:54;;;;;;;1.33;0.55;;;21.20;98.60;;;;;;4164195;28;20050;-63
2022/04/02 04:28:03;;;;;;;3.58;0.60;;;21.40;98.40;;;;;;4179909;28;20057;-63
2022/04/02 04:30:09;;;;;;;1.30;0.60;;;21.40;98.80;;;;;;4147015;28;20062;-63
2022/04/02 04:32:17;;;;;;;1.38;0.82;;;21.70;98.40;;;;;;4180662;28;20475;-63
2022/04/02 04:34:22;;;;;;;1.90;0.70;;;21.70;98.10;;;;;;4179510;28;20638;-62
2022/04/02 04:36:27;;;;;;;1.80;0.55;;;21.60;97.90;;;;;;4162327;28;20539;-62
2022/04/02 04:38:35;;;;;;;1.90;0.32;;;21.20;98.60;;;;;;4179926;28;20045;-63
2022/04/02 04:40:47;;;;;;;1.25;0.63;;;21.00;98.80;;;;;;4162756;28;20516;-63
2022/04/02 04:42:56;;;;;;;3.20;0.70;;;20.90;99.10;;;;;;4162599;28;20045;-64
2022/04/02 04:45:13;;;;;;;1.20;0.68;;;21.10;99.20;;;;;;4158826;28;20517;-64
2022/04/02 04:47:22;;;;;;;4.00;0.63;;;21.30;99.30;;;;;;4162868;28;20064;-63
2022/04/02 04:49:28;;;;;;;3.22;0.68;;;21.30;99.00;;;;;;4162657;28;20119;-62
2022/04/02 04:51:40;;;;;;;1.92;0.70;;;21.50;99.70;;;;;;4175172;28;20052;-64
2022/04/02 04:53:47;;;;;;;3.15;0.50;;;21.40;99.30;;;;;;4156830;28;20057;-64
2022/04/02 04:55:52;;;;;;;1.58;0.50;;;21.20;99.70;;;;;;4173936;28;20057;-63
2022/04/02 04:58:00;;;;;;;1.17;0.40;;;21.30;99.90;;;;;;4157496;28;20057;-64
2022/04/02 05:00:08;;;;;;;1.75;0.60;;;21.30;99.90;;;;;;4156757;28;20084;-64
2022/04/02 05:02:13;;;;;;;0.90;0.50;;;21.40;99.90;;;;;;4140553;28;20078;-63
2022/04/02 05:04:19;;;;;;;2.47;0.55;;;21.30;99.90;;;;;;4155423;28;20435;-63
2022/04/02 05:06:28;;;;;;;1.40;0.50;;;21.20;99.90;;;;;;4171288;28;20086;-64
2022/04/02 05:08:33;;;;;;;1.23;0.57;;;21.20;99.90;;;;;;4074331;28;20184;-63
2022/04/02 05:10:42;;;;;;;1.60;0.40;;;20.90;99.90;;;;;;4089648;28;20051;-63
2022/04/02 05:12:55;;;;;;;3.33;0.52;;;20.90;99.90;;;;;;4131107;28;20486;-63
2022/04/02 05:15:01;;;;;;;0.45;0.30;;;20.80;99.90;;;;;;4130781;28;20057;-63
2022/04/02 05:17:08;;;;;;;1.05;0.40;;;20.90;99.90;;;;;;4090340;28;20059;-63
2022/04/02 05:19:15;;;;;;;1.10;0.50;;;21.10;99.90;;;;;;4113939;28;20125;-65
2022/04/02 05:21:23;;;;;;;1.50;0.45;;;21.00;99.90;;;;;;4115460;28;20078;-64
2022/04/02 05:23:32;;;;;;;1.00;0.50;;;20.80;99.90;;;;;;4106255;28;20045;-64
2022/04/02 05:25:40;;;;;;;2.80;0.73;;;21.00;99.90;;;;;;4122239;28;20529;-65
2022/04/02 05:27:47;;;;;;;2.90;0.70;;;20.90;99.90;;;;;;4130730;28;20057;-65
2022/04/02 05:29:56;;;;;;;1.70;1.00;;;21.00;99.90;;;;;;4116275;28;20058;-64
2022/04/02 05:32:04;;;;;;;3.20;0.90;;;21.00;99.90;;;;;;4105293;28;20118;-65
2022/04/02 05:34:11;;;;;;;3.70;1.10;;;20.90;99.90;;;;;;4130198;28;20061;-65
2022/04/02 05:36:17;;;;;;;2.85;1.10;;;21.10;99.90;;;;;;4105554;28;20049;-64
2022/04/02 05:38:27;;;;;;;2.40;1.17;;;21.30;99.90;;;;;;4135969;28;20541;-66
2022/04/02 05:40:32;;;;;;;2.80;1.40;;;21.20;99.90;;;;;;4168139;28;20048;-67
2022/04/02 05:42:38;;;;;;;2.75;1.50;;;20.90;99.90;;;;;;4158260;28;20140;-67
2022/04/02 05:44:44;;;;;;;4.20;1.92;;;21.00;99.90;;;;;;4179173;28;20036;-66
2022/04/02 05:46:49;;;;;;;3.95;1.98;;;20.90;99.90;;;;;;4162263;28;20056;-67
2022/04/02 05:49:16;;;;;;;3.30;1.20;;;21.10;99.90;;;;;;4165472;28;20044;-66
2022/04/02 05:51:22;;;;;;;2.25;1.10;;;20.90;99.90;;;;;;4194771;28;20066;-67
2022/04/02 05:53:27;;;;;;;1.38;0.98;;;21.30;99.90;;;;;;4179565;28;20068;-66
2022/04/02 05:55:35;;;;;;;1.65;1.10;;;21.10;99.90;;;;;;4179748;28;20037;-68
2022/04/02 05:57:41;;;;;;;2.40;1.15;;;21.20;99.90;;;;;;4160972;28;20504;-68
2022/04/02 05:59:46;;;;;;;1.88;1.40;;;21.10;99.90;;;;;;4162786;28;20049;-67
2022/04/02 06:01:52;;;;;;;2.67;1.20;;;20.90;99.90;;;;;;4161909;28;20041;-67
2022/04/02 06:03:59;;;;;;;1.70;1.15;;;20.70;99.90;;;;;;4179553;28;20076;-67
2022/04/02 06:06:03;;;;;;;1.38;0.82;;;21.00;99.90;;;;;;4162437;28;20057;-67
2022/04/02 06:08:10;;;;;;;1.90;1.20;;;20.90;99.90;;;;;;4119805;28;20517;-66
2022/04/02 06:10:16;;;;;;;3.55;1.23;;;20.60;99.90;;;;;;4124955;28;20589;-68
2022/04/02 06:12:20;;;;;;;3.33;1.50;;;20.80;99.90;;;;;;4142699;28;20060;-72
2022/04/02 06:14:27;;;;;;;4.90;2.42;;;20.90;99.90;;;;;;4128701;28;20069;-71
2022/04/02 06:16:37;;;;;;;6.18;3.05;;;21.10;99.90;;;;;;4128370;28;20604;-71
2022/04/02 06:18:42;;;;;;;7.25;3.70;;;21.00;99.90;;;;;;4128078;28;20086;-69
2022/04/02 06:20:49;;;;;;;7.88;2.90;;;21.10;99.90;;;;;;4128954;28;20066;-70
2022/04/02 06:22:56;;;;;;;5.60;3.40;;;21.10;99.90;;;;;;4128226;28;20125;-68
2022/04/02 06:25:00;;;;;;;6.80;3.20;;;20.90;99.90;;;;;;4120521;28;20101;-71
2022/04/02 06:27:10;;;;;;;5.15;2.85;;;21.10;99.90;;;;;;4126204;28;20054;-70
2022/04/02 06:29:19;;;;;;;5.78;3.03;;;21.10;99.90;;;;;;4112185;28;20070;-70
2022/04/02 06:31:23;;;;;;;6.13;2.88;;;20.70;99.90;;;;;;4129040;28;20105;-70
2022/04/02 06:33:28;;;;;;;6.57;3.20;;;20.60;99.90;;;;;;4112543;28;20395;-70
2022/04/02 06:35:37;;;;;;;5.85;2.90;;;20.80;99.90;;;;;;4129822;28;20081;-70
2022/04/02 06:37:44;;;;;;;5.25;2.42;;;20.80;99.90;;;;;;4129175;28;20093;-70
2022/04/02 06:39:51;;;;;;;6.65;2.67;;;21.00;99.90;;;;;;4165637;28;20527;-70
2022/04/02 06:41:58;;;;;;;3.10;1.40;;;20.80;99.90;;;;;;4149023;28;20073;-69
2022/04/02 06:44:11;;;;;;;4.97;2.05;;;20.70;99.90;;;;;;4148180;28;20177;-70
2022/04/02 06:46:16;;;;;;;6.00;2.05;;;20.90;99.90;;;;;;4180068;28;20408;-70
2022/04/02 06:48:25;;;;;;;6.22;2.58;;;21.00;99.90;;;;;;4162425;28;20052;-69
2022/04/02 06:50:29;;;;;;;4.18;2.00;;;20.70;99.90;;;;;;4163540;28;20155;-69
2022/04/02 06:52:36;;;;;;;4.65;2.15;;;20.70;99.90;;;;;;4181646;28;20049;-69
2022/04/02 06:54:41;;;;;;;3.42;1.13;;;21.00;99.90;;;;;;4181600;28;20041;-68
2022/04/02 06:56:50;;;;;;;2.30;1.30;;;20.90;99.90;;;;;;4179840;28;20045;-68
2022/04/02 06:58:57;;;;;;;3.97;2.08;;;20.80;99.90;;;;;;4180411;28;20228;-70
2022/04/02 07:01:03;;;;;;;3.90;2.20;;;20.90;99.90;;;;;;4179994;28;20052;-68
2022/04/02 07:03:09;;;;;;;4.22;1.83;;;20.80;99.90;;;;;;4175452;28;20064;-69
2022/04/02 07:05:21;;;;;;;3.38;1.63;;;20.70;99.90;;;;;;4180775;28;20037;-69
2022/04/02 07:07:28;;;;;;;4.18;1.10;;;20.90;99.90;;;;;;4151572;28;20080;-67
2022/04/02 07:09:35;;;;;;;2.72;1.10;;;20.80;99.90;;;;;;4180054;28;20060;-68
2022/04/02 07:11:41;;;;;;;3.08;0.88;;;21.00;99.90;;;;;;4147472;28;20120;-67
2022/04/02 07:13:48;;;;;;;1.40;0.90;;;20.80;99.90;;;;;;4180533;28;20045;-69
2022/04/02 07:15:53;;;;;;;2.28;1.23;;;20.80;99.90;;;;;;4179099;28;20060;-69
2022/04/02 07:18:09;;;;;;;4.82;1.20;;;20.80;99.90;;;;;;4147797;28;20052;-69
2022/04/02 07:20:19;;;;;;;2.33;1.20;;;21.10;99.90;;;;;;4164631;28;20398;-69
2022/04/02 07:22:25;;;;;;;2.30;1.00;;;21.10;99.90;;;;;;4163195;28;20111;-69
2022/04/02 07:24:35;;;;;;;2.15;1.00;;;21.00;99.90;;;;;;4162677;28;20104;-69
2022/04/02 07:26:40;;;;;;;1.67;1.08;;;21.10;99.90;;;;;;4153136;28;20050;-68
2022/04/02 07:28:45;;;;;;;3.92;1.00;;;21.30;99.90;;;;;;4125525;28;20050;-70
2022/04/02 07:30:51;;;;;;;2.67;1.10;;;21.00;99.90;;;;;;4091370;29;20692;-69
2022/04/02 07:33:01;;;;;;;1.17;0.88;;;20.80;99.90;;;;;;4108002;28;20045;-69
2022/04/02 07:35:07;;;;;;;2.15;0.90;;;20.60;99.90;;;;;;4102942;28;20114;-69
2022/04/02 07:37:38;;;;;;;2.83;1.05;;;20.70;99.90;;;;;;4105477;28;20110;-68
2022/04/02 07:39:51;;;;;;;2.30;1.10;;;20.70;99.90;;;;;;4109973;28;20573;-69
2022/04/02 07:42:17;;;;;;;4.05;1.38;;;20.80;99.90;;;;;;4112735;28;20148;-68
2022/04/02 07:44:35;;;;;;;2.00;1.05;;;20.80;99.90;;;;;;4079356;29;20107;-68
2022/04/02 07:46:41;;;;;;;3.00;0.98;;;21.00;99.90;;;;;;4078323;29;20058;-68
2022/04/02 07:48:52;;;;;;;3.45;1.35;;;20.80;99.90;;;;;;4063093;29;20083;-67
2022/04/02 07:51:09;;;;;;;2.00;0.88;;;20.60;99.90;;;;;;4071927;29;20107;-68
2022/04/02 07:53:21;;;;;;;3.63;0.98;;;20.40;99.90;;;;;;4054224;29;20369;-68
2022/04/02 07:55:29;;;;;;;1.55;0.88;;;20.50;99.90;;;;;;4066326;29;20048;-67
2022/04/02 07:57:39;;;;;;;2.28;0.90;;;20.40;99.90;;;;;;4066968;29;20052;-68
2022/04/02 07:59:45;;;;;;;2.03;0.98;;;20.50;99.90;;;;;;4065889;29;20056;-67
2022/04/02 08:01:53;;;;;;;1.70;1.10;;;20.50;99.90;;;;;;4056998;29;20052;-67
2022/04/02 08:03:58;;;;;;;1.80;1.10;;;20.70;99.90;;;;;;4114875;28;20065;-67
2022/04/02 08:06:04;;;;;;;3.80;0.88;;;20.70;99.90;;;;;;4041909;29;20045;-68
2022/04/02 08:08:11;;;;;;;1.50;0.77;;;20.90;99.90;;;;;;4056844;29;20051;-68
2022/04/02 08:10:23;;;;;;;1.95;0.95;;;20.90;99.90;;;;;;4065840;29;20048;-68
2022/04/02 08:12:30;;;;;;;3.55;1.00;;;20.80;99.90;;;;;;4065195;29;20052;-68
2022/04/02 08:14:39;;;;;;;2.60;0.90;;;20.70;99.90;;;;;;4049107;29;20135;-67
2022/04/02 08:16:44;;;;;;;1.98;1.25;;;20.70;99.90;;;;;;4032749;29;20091;-68
2022/04/02 08:18:51;;;;;;;2.10;0.98;;;20.80;99.90;;;;;;4033485;29;20045;-66
2022/04/02 08:20:59;;;;;;;2.35;1.20;;;20.60;99.90;;;;;;4039265;29;20055;-67
2022/04/02 08:23:07;;;;;;;2.60;1.52;;;20.70;99.90;;;;;;4089509;28;20047;-67
2022/04/02 08:25:15;;;;;;;2.85;1.50;;;21.00;99.90;;;;;;4097022;28;20111;-67
2022/04/02 08:27:42;;;;;;;3.45;1.65;;;21.00;99.90;;;;;;4088487;28;20137;-66
2022/04/02 08:30:04;;;;;;;;;;;21.00;99.90;;;;;;4092560;28;20053;-67
2022/04/02 08:32:27;;;;;;;3.30;1.80;;;21.00;99.90;;;;;;4091415;28;19930;-67
2022/04/02 08:34:40;;;;;;;;;;;20.90;99.90;;;;;;4092614;28;20051;-67
2022/04/02 08:36:59;;;;;;;4.05;2.05;;;21.00;99.90;;;;;;4099913;28;19925;-66
2022/04/02 08:39:32;;;;;;;3.83;1.90;;;20.90;99.90;;;;;;4134967;28;20042;-67
2022/04/02 08:41:53;;;;;;;3.22;2.03;;;21.00;99.90;;;;;;4155789;28;20076;-67
2022/04/02 08:44:10;;;;;;;3.15;1.90;;;21.00;99.90;;;;;;4135903;28;20081;-67
2022/04/02 08:46:42;;;;;;;3.75;2.60;;;20.90;99.90;;;;;;4133389;28;20054;-66
2022/04/02 08:49:00;;;;;;;4.32;2.15;;;20.90;99.90;;;;;;4154864;28;20045;-67
2022/04/02 08:51:25;;;;;;;5.57;2.63;;;20.80;99.90;;;;;;4188616;28;20131;-67
2022/04/02 08:53:55;;;;;;;4.22;2.40;;;20.70;99.90;;;;;;4156047;28;20477;-67
2022/04/02 08:56:05;;;;;;;2.58;2.20;;;20.70;99.90;;;;;;4172590;28;20045;-67
2022/04/02 08:58:42;;;;;;;4.53;2.38;;;21.10;99.90;;;;;;4173629;28;20962;-67
2022/04/02 09:01:06;;;;;;;6.32;2.05;;;20.80;99.90;;;;;;4148996;28;21024;-67
2022/04/02 09:03:35;;;;;;;3.58;2.15;;;20.60;99.90;;;;;;4166803;28;20039;-68
2022/04/02 09:05:55;;;;;;;3.85;2.08;;;20.60;99.90;;;;;;4152919;28;20773;-66
2022/04/02 09:08:22;;;;;;;3.80;1.90;;;20.50;99.90;;;;;;4136748;28;20791;-67
2022/04/02 09:10:37;;;;;;;2.50;1.88;;;20.60;99.90;;;;;;4166348;28;20049;-67
2022/04/02 09:13:07;;;;;;;3.78;2.20;;;20.80;99.90;;;;;;4155874;28;20072;-66
2022/04/02 09:15:24;;;;;;;3.63;2.10;;;21.10;99.90;;;;;;4172872;28;22011;-67
2022/04/02 09:17:51;;;;;;;2.97;1.92;;;20.70;99.90;;;;;;4150344;28;20137;-67
2022/04/02 09:20:16;;;;;;;3.33;1.85;;;20.80;99.90;;;;;;4152965;28;20056;-67
2022/04/02 09:22:38;;;;;;;2.80;2.00;;;20.90;99.90;;;;;;4162374;28;20507;-67
2022/04/02 09:25:04;;;;;;;4.40;1.98;;;21.10;99.90;;;;;;4146122;28;20431;-67
2022/04/02 09:27:28;;;;;;;3.63;1.85;;;21.10;99.90;;;;;;4172153;28;20940;-67
2022/04/02 09:29:44;;;;;;;2.10;1.85;;;20.90;99.90;;;;;;4165265;28;20053;-67
2022/04/02 09:32:06;;;;;;;4.93;1.85;;;20.80;99.90;;;;;;4181224;28;20585;-67
2022/04/02 09:34:13;;;;;;;3.85;1.85;;;20.80;99.90;;;;;;4179274;28;20044;-67
2022/04/02 09:36:45;;;;;;;3.80;2.00;;;20.70;99.90;;;;;;4164553;28;20053;-67
2022/04/02 09:39:02;;;;;;;3.13;1.80;;;20.60;99.90;;;;;;4165233;28;20392;-67
2022/04/02 09:41:17;;;;;;;5.47;1.95;;;20.80;99.90;;;;;;4148436;28;20498;-69
2022/04/02 09:43:26;;;;;;;5.35;1.90;;;21.00;99.90;;;;;;4164607;28;20155;-67
2022/04/02 09:45:37;;;;;;;2.30;1.73;;;21.00;99.90;;;;;;4166390;28;20648;-67
2022/04/02 09:47:49;;;;;;;5.25;2.03;;;20.90;99.90;;;;;;4163242;28;20472;-67
2022/04/02 09:50:13;;;;;;;6.00;3.17;;;20.70;99.90;;;;;;4166332;28;20122;-67
2022/04/02 09:52:22;;;;;;;4.65;2.58;;;20.60;99.90;;;;;;4182224;28;20521;-67
2022/04/02 09:54:42;;;;;;;4.63;1.95;;;20.70;99.90;;;;;;4169094;28;20049;-67
2022/04/02 09:56:51;;;;;;;3.40;2.15;;;20.80;99.90;;;;;;4167490;28;20137;-68
2022/04/02 09:59:09;;;;;;;4.82;2.22;;;21.00;99.90;;;;;;4162556;28;20048;-68
2022/04/02 10:01:29;;;;;;;3.67;1.92;;;20.90;99.90;;;;;;4167270;28;20049;-67
2022/04/02 10:03:50;;;;;;;3.85;1.92;;;21.10;99.90;;;;;;4153804;28;20073;-68
2022/04/02 10:06:25;;;;;;;4.50;2.10;;;20.80;99.90;;;;;;4168866;28;20130;-67
2022/04/02 10:08:41;;;;;;;3.92;2.03;;;20.70;99.90;;;;;;4174661;28;20045;-68
2022/04/02 10:10:49;;;;;;;3.75;2.08;;;20.90;99.90;;;;;;4168740;28;20133;-68
2022/04/02 10:13:00;;;;;;;2.33;1.80;;;21.10;99.90;;;;;;4155979;28;20080;-67
2022/04/02 10:15:06;;;;;;;4.32;1.90;;;21.10;99.90;;;;;;4170789;28;20290;-67
2022/04/02 10:17:14;;;;;;;3.78;1.92;;;21.00;99.90;;;;;;4185348;28;20044;-67
2022/04/02 10:19:34;;;;;;;2.80;1.67;;;20.80;99.90;;;;;;4185307;28;20045;-67
2022/04/02 10:21:41;;;;;;;3.85;1.92;;;20.90;99.90;;;;;;4184822;28;20102;-68
2022/04/02 10:24:01;;;;;;;3.75;2.35;;;20.80;99.90;;;;;;4140798;28;20105;-68
2022/04/02 10:26:23;;;;;;;6.90;2.95;;;21.00;99.90;;;;;;4152802;28;20052;-68
2022/04/02 10:28:32;;;;;;;9.20;2.95;;;20.90;99.90;;;;;;4153041;28;20053;-68
2022/04/02 10:30:40;;;;;;;7.50;3.60;;;20.70;99.90;;;;;;4149395;28;20118;-67
2022/04/02 10:33:26;;;;;;;6.95;3.58;;;20.60;99.90;;;;;;4151230;28;20741;-68
2022/04/02 10:35:25;;;;;;;4.15;3.25;;;20.90;99.90;;;;;;4129021;28;20100;-68
2022/04/02 10:37:39;;;;;;;4.03;2.72;;;20.90;99.90;;;;;;4151029;28;20053;-68
2022/04/02 10:39:55;;;;;;;4.63;3.00;;;20.90;99.90;;;;;;4151295;28;20057;-67
2022/04/02 10:42:05;;;;;;;3.72;2.88;;;20.80;99.90;;;;;;4134106;28;20535;-67
2022/04/02 10:44:19;;;;;;;3.50;2.70;;;20.90;99.90;;;;;;4151466;28;20123;-69
2022/04/02 10:46:25;;;;;;;4.40;2.95;;;20.80;99.90;;;;;;4149893;28;20088;-67
2022/04/02 10:48:41;;;;;;;7.28;3.45;;;20.80;99.90;;;;;;4102914;28;20106;-67
2022/04/02 10:50:49;;;;;;;6.80;2.92;;;20.70;99.90;;;;;;4155349;28;20081;-66
2022/04/02 10:52:53;;;;;;;3.42;3.10;;;20.70;99.90;;;;;;4156455;28;20610;-67
2022/04/02 10:55:00;;;;;;;4.30;3.08;;;20.60;99.90;;;;;;4151261;28;20053;-67
2022/04/02 10:57:06;;;;;;;5.75;3.35;;;20.60;99.90;;;;;;4173888;28;20573;-67
2022/04/02 10:59:12;;;;;;;8.10;3.72;;;20.60;99.90;;;;;;4173004;28;20087;-68
2022/04/02 11:01:21;;;;;;;7.13;4.00;;;20.60;99.90;;;;;;4156192;28;20049;-68
2022/04/02 11:03:41;;;;;;;5.90;4.05;;;20.60;99.90;;;;;;4189371;28;20059;-69
2022/04/02 11:05:46;;;;;;;11.43;3.63;;;20.70;99.90;;;;;;4170724;28;20049;-68
2022/04/02 11:07:55;;;;;;;5.28;3.88;;;20.70;99.90;;;;;;4173220;28;20109;-68
2022/04/02 11:10:04;;;;;;;9.18;4.20;;;20.60;99.90;;;;;;4184493;28;20091;-67
2022/04/02 11:12:11;;;;;;;5.80;3.83;;;20.40;99.90;;;;;;4187668;28;20051;-67
2022/04/02 11:14:21;;;;;;;6.18;3.35;;;20.80;99.90;;;;;;4172083;28;20053;-67
2022/04/02 11:16:27;;;;;;;7.35;4.35;;;21.00;99.90;;;;;;4173175;28;20055;-66
2022/04/02 11:18:32;;;;;;;7.03;4.72;;;20.70;99.90;;;;;;4151733;28;20041;-68
2022/04/02 11:20:38;;;;;;;6.63;4.25;;;20.70;99.90;;;;;;4137486;28;20053;-69
2022/04/02 11:23:02;;;;;;;8.60;4.43;;;20.70;99.90;;;;;;4161531;28;20096;-69
2022/04/02 11:25:13;;;;;;;6.80;3.88;;;20.70;99.90;;;;;;4159842;28;20233;-67